Rutledge, Minnesota
Current Conditions -  °F | °C
As of 6:13 AM on Friday 21 Nov 2014 (Local Time) from KMZH Reporting Station
Clear Clear  
Wind Chill: -6°   Ceiling: Unl
Heat Index: -6°   Visibility: 10mi
Dew Point: -9°   Wind: 0mph
Humidity: 84%   Direction: NA
Pressure: 30.12"   Gusts: NA
Location:  46.2985°N, 92.833°W
Report Text: KMZH 211213Z AUTO 00000KT 10SM CLR M21/M23 A3012 RMK AO2
Loading
Personal Weather Stations






























Interactive Weather Map New forecast layout! Learn more

10-Day Weather Forecast

Advertisements
Track Severe Weather on mobile